Date,TemperatureHighF,TemperatureAvgF,TemperatureLowF,DewpointHighF,DewpointAvgF,DewpointLowF,HumidityHigh,HumidityAvg,HumidityLow,PressureMaxIn,PressureMinIn,WindSpeedMaxMPH,WindSpeedAvgMPH,GustSpeedMaxMPH,PrecipitationSumIn
2013-2-1,7.3,-1.9,-11.4,-3.1,-10.7,-17.9,78,66,50,30.26,30.10,11,5,11,0.00
2013-2-2,15.6,5.5,-2.6,1.3,-2.7,-11.1,80,69,50,30.11,29.98,9,2,9,0.00
2013-2-3,20.1,10.2,0.1,5.7,1.9,-5.6,85,69,53,29.99,29.91,12,4,12,0.00
2013-2-4,22.1,10.9,-0.4,4.7,0.3,-6.4,80,63,37,30.00,29.93,9,2,9,0.00
2013-2-5,26.6,15.5,-1.5,22.6,10.2,-9.0,89,79,69,30.08,29.70,12,4,12,0.00
2013-2-6,29.3,13.6,-4.4,23.6,8.9,-10.6,95,81,69,30.17,30.04,9,3,9,0.00
2013-2-7,28.8,26.4,24.1,28.5,25.9,22.6,99,98,94,30.15,29.99,11,5,11,0.00
2013-2-8,31.5,17.9,4.3,22.0,11.3,-1.6,93,76,52,30.37,30.17,9,3,9,0.08
2013-2-9,26.1,16.7,-0.9,23.5,13.7,-5.9,92,88,79,30.35,30.07,10,4,10,0.00
2013-2-10,35.8,31.8,25.0,35.5,31.2,24.0,99,98,92,30.05,29.33,24,9,24,0.09
2013-2-11,35.2,29.8,24.4,35.0,27.6,19.7,99,91,80,29.96,29.30,18,9,18,0.06
2013-2-12,35.2,24.9,19.0,23.9,18.6,14.5,85,77,62,30.04,29.85,14,4,14,0.00
2013-2-13,41.7,30.6,16.9,29.9,25.8,15.7,98,83,60,29.81,29.65,6,1,6,0.00
2013-2-14,34.3,29.9,24.4,32.7,24.9,17.4,99,82,65,29.98,29.55,20,4,20,0.00
2013-2-15,25.2,13.6,3.2,8.5,3.3,-4.7,79,64,47,30.19,30.06,13,4,13,0.00
2013-2-16,22.8,9.7,-8.7,2.6,-3.8,-17.3,76,55,39,30.18,30.12,13,2,13,0.00
2013-2-17,63.9,-2.1,-15.5,52.4,-10.6,-25.7,72,66,44,30.17,30.07,12,2,12,0.00
2013-2-18,44.8,31.0,20.5,32.5,25.3,14.1,93,80,62,29.85,29.50,13,6,13,0.00
2013-2-19,21.4,10.0,5.9,19.3,-0.0,-5.6,93,64,47,30.14,29.56,23,8,23,0.00
2013-2-20,28.9,15.9,-0.4,10.9,3.8,-7.0,76,59,45,30.36,30.19,12,4,12,0.00
2013-2-21,23.5,13.8,-1.8,20.1,7.4,-7.6,92,75,65,30.44,30.11,20,6,20,0.00
2013-2-22,32.4,25.5,21.0,29.1,23.8,19.4,97,93,85,30.10,29.79,16,6,16,0.00
2013-2-23,36.3,26.7,23.5,25.0,22.6,19.5,97,85,62,29.92,29.79,9,4,9,0.05
2013-2-24,42.1,25.8,11.1,28.3,19.5,8.3,91,78,57,30.11,29.93,6,2,6,0.02
2013-2-25,40.8,27.4,15.6,28.1,21.4,12.2,91,79,59,30.13,30.05,3,1,3,0.00
2013-2-26,32.9,27.7,20.3,28.3,24.5,18.0,98,88,75,30.06,29.80,21,7,21,0.01
2013-2-27,32.0,30.8,29.1,30.0,27.3,24.2,95,87,78,29.83,29.71,17,8,17,0.00
2013-2-28,34.0,30.2,24.1,28.2,23.0,15.0,91,75,64,30.16,29.86,11,7,11,0.00